Port Mellon, Canada
Current Conditions -  °F | °C
As of 9:00 AM on Tuesday 27 Jan 2015 (Local Time) from CYVR Reporting Station
Overcast Overcast  
Wind Chill: 45°   Ceiling: 6600
Heat Index: 48°   Visibility: 15mi
Dew Point: 46°   Wind: 8mph
Humidity: 93%   Direction: 110°ESE
Pressure: 30.03"   Gusts: NA
Location:  49.52°N, 123.48°W
Report Text: CYVR 271700Z 11007KT 15SM FEW006 SCT030 BKN066 OVC170 09/08 A3003 RMK SF2SC1AC3AC2 SLP168
Loading
Personal Weather Stations






























Interactive Weather Map New forecast layout! Learn more

10-Day Weather Forecast

Advertisements
Track Severe Weather on mobile